sensor_id;sensor_type;location;lat;lon;timestamp;P1;durP1;ratioP1;P2;durP2;ratioP2
57111;SDS011;42992;49.084;19.300;2022-07-06T00:01:44;2.42;;;1.20;;
57111;SDS011;42992;49.084;19.300;2022-07-06T00:04:10;2.50;;;1.40;;
57111;SDS011;42992;49.084;19.300;2022-07-06T00:06:35;4.07;;;1.50;;
57111;SDS011;42992;49.084;19.300;2022-07-06T00:09:01;2.05;;;1.20;;
57111;SDS011;42992;49.084;19.300;2022-07-06T00:11:26;3.05;;;1.30;;
57111;SDS011;42992;49.084;19.300;2022-07-06T00:13:52;2.35;;;1.30;;
57111;SDS011;42992;49.084;19.300;2022-07-06T00:16:17;2.15;;;1.30;;
57111;SDS011;42992;49.084;19.300;2022-07-06T00:18:42;1.88;;;1.08;;
57111;SDS011;42992;49.084;19.300;2022-07-06T00:21:08;4.28;;;1.25;;
57111;SDS011;42992;49.084;19.300;2022-07-06T00:23:33;1.98;;;1.00;;
57111;SDS011;42992;49.084;19.300;2022-07-06T00:25:58;2.47;;;1.30;;
57111;SDS011;42992;49.084;19.300;2022-07-06T00:28:24;2.17;;;1.20;;
57111;SDS011;42992;49.084;19.300;2022-07-06T00:30:49;2.13;;;1.10;;
57111;SDS011;42992;49.084;19.300;2022-07-06T00:33:15;2.47;;;1.27;;
57111;SDS011;42992;49.084;19.300;2022-07-06T00:35:40;2.20;;;1.20;;
57111;SDS011;42992;49.084;19.300;2022-07-06T00:38:05;2.60;;;1.30;;
57111;SDS011;42992;49.084;19.300;2022-07-06T00:40:32;2.45;;;1.20;;
57111;SDS011;42992;49.084;19.300;2022-07-06T00:42:57;2.78;;;1.40;;
57111;SDS011;42992;49.084;19.300;2022-07-06T00:45:23;2.25;;;1.30;;
57111;SDS011;42992;49.084;19.300;2022-07-06T00:47:48;3.53;;;1.38;;
57111;SDS011;42992;49.084;19.300;2022-07-06T00:50:14;2.72;;;1.60;;
57111;SDS011;42992;49.084;19.300;2022-07-06T00:52:44;2.78;;;1.63;;
57111;SDS011;42992;49.084;19.300;2022-07-06T00:55:10;3.55;;;1.60;;
57111;SDS011;42992;49.084;19.300;2022-07-06T00:57:36;2.60;;;1.60;;
57111;SDS011;42992;49.084;19.300;2022-07-06T01:00:03;2.35;;;1.30;;
57111;SDS011;42992;49.084;19.300;2022-07-06T01:02:30;2.50;;;1.50;;
57111;SDS011;42992;49.084;19.300;2022-07-06T01:04:56;3.10;;;1.60;;
57111;SDS011;42992;49.084;19.300;2022-07-06T01:07:21;2.47;;;1.60;;
57111;SDS011;42992;49.084;19.300;2022-07-06T01:09:46;2.47;;;1.40;;
57111;SDS011;42992;49.084;19.300;2022-07-06T01:12:11;2.45;;;1.45;;
57111;SDS011;42992;49.084;19.300;2022-07-06T01:14:37;2.33;;;1.42;;
57111;SDS011;42992;49.084;19.300;2022-07-06T01:17:02;3.58;;;1.50;;
57111;SDS011;42992;49.084;19.300;2022-07-06T01:19:28;3.20;;;1.85;;
57111;SDS011;42992;49.084;19.300;2022-07-06T01:21:53;3.60;;;1.70;;
57111;SDS011;42992;49.084;19.300;2022-07-06T01:24:18;2.60;;;1.80;;
57111;SDS011;42992;49.084;19.300;2022-07-06T01:26:43;2.78;;;1.90;;
57111;SDS011;42992;49.084;19.300;2022-07-06T01:29:09;3.40;;;1.85;;
57111;SDS011;42992;49.084;19.300;2022-07-06T01:31:34;3.22;;;2.25;;
57111;SDS011;42992;49.084;19.300;2022-07-06T01:33:59;3.25;;;2.13;;
57111;SDS011;42992;49.084;19.300;2022-07-06T01:36:25;2.97;;;2.05;;
57111;SDS011;42992;49.084;19.300;2022-07-06T01:38:51;3.45;;;2.13;;
57111;SDS011;42992;49.084;19.300;2022-07-06T01:41:16;3.25;;;1.85;;
57111;SDS011;42992;49.084;19.300;2022-07-06T01:43:42;2.70;;;1.85;;
57111;SDS011;42992;49.084;19.300;2022-07-06T01:46:07;4.05;;;2.50;;
57111;SDS011;42992;49.084;19.300;2022-07-06T01:48:33;4.55;;;2.25;;
57111;SDS011;42992;49.084;19.300;2022-07-06T01:50:58;3.33;;;2.15;;
57111;SDS011;42992;49.084;19.300;2022-07-06T01:53:23;3.38;;;2.20;;
57111;SDS011;42992;49.084;19.300;2022-07-06T01:55:49;3.97;;;2.10;;
57111;SDS011;42992;49.084;19.300;2022-07-06T01:58:14;2.97;;;2.03;;
57111;SDS011;42992;49.084;19.300;2022-07-06T02:00:39;3.33;;;2.22;;
57111;SDS011;42992;49.084;19.300;2022-07-06T02:03:05;3.75;;;2.00;;
57111;SDS011;42992;49.084;19.300;2022-07-06T02:05:30;3.20;;;2.08;;
57111;SDS011;42992;49.084;19.300;2022-07-06T02:07:55;3.00;;;2.10;;
57111;SDS011;42992;49.084;19.300;2022-07-06T02:10:21;3.90;;;1.92;;
57111;SDS011;42992;49.084;19.300;2022-07-06T02:12:46;3.75;;;2.05;;
57111;SDS011;42992;49.084;19.300;2022-07-06T02:15:12;3.42;;;2.13;;
57111;SDS011;42992;49.084;19.300;2022-07-06T02:17:37;3.00;;;1.90;;
57111;SDS011;42992;49.084;19.300;2022-07-06T02:20:03;3.08;;;1.90;;
57111;SDS011;42992;49.084;19.300;2022-07-06T02:22:28;3.63;;;1.98;;
57111;SDS011;42992;49.084;19.300;2022-07-06T02:24:54;4.78;;;2.05;;
57111;SDS011;42992;49.084;19.300;2022-07-06T02:27:19;4.97;;;2.15;;
57111;SDS011;42992;49.084;19.300;2022-07-06T02:29:44;3.35;;;1.85;;
57111;SDS011;42992;49.084;19.300;2022-07-06T02:32:10;3.30;;;2.17;;
57111;SDS011;42992;49.084;19.300;2022-07-06T02:34:35;3.70;;;2.20;;
57111;SDS011;42992;49.084;19.300;2022-07-06T02:37:00;3.22;;;2.30;;
57111;SDS011;42992;49.084;19.300;2022-07-06T02:39:25;4.25;;;2.13;;
57111;SDS011;42992;49.084;19.300;2022-07-06T02:41:51;3.70;;;1.85;;
57111;SDS011;42992;49.084;19.300;2022-07-06T02:44:16;3.28;;;2.05;;
57111;SDS011;42992;49.084;19.300;2022-07-06T02:46:41;3.63;;;2.15;;
57111;SDS011;42992;49.084;19.300;2022-07-06T02:49:06;4.65;;;2.15;;
57111;SDS011;42992;49.084;19.300;2022-07-06T02:51:32;3.50;;;2.50;;
57111;SDS011;42992;49.084;19.300;2022-07-06T02:53:57;3.10;;;2.00;;
57111;SDS011;42992;49.084;19.300;2022-07-06T02:56:22;3.83;;;2.00;;
57111;SDS011;42992;49.084;19.300;2022-07-06T02:58:47;2.95;;;1.83;;
57111;SDS011;42992;49.084;19.300;2022-07-06T03:01:13;3.15;;;1.98;;
57111;SDS011;42992;49.084;19.300;2022-07-06T03:03:38;4.03;;;1.70;;
57111;SDS011;42992;49.084;19.300;2022-07-06T03:06:03;3.08;;;2.05;;
57111;SDS011;42992;49.084;19.300;2022-07-06T03:08:28;3.05;;;1.85;;
57111;SDS011;42992;49.084;19.300;2022-07-06T03:10:54;5.72;;;1.75;;
57111;SDS011;42992;49.084;19.300;2022-07-06T03:13:19;3.35;;;2.00;;
57111;SDS011;42992;49.084;19.300;2022-07-06T03:15:44;2.92;;;1.92;;
57111;SDS011;42992;49.084;19.300;2022-07-06T03:18:10;4.13;;;2.20;;
57111;SDS011;42992;49.084;19.300;2022-07-06T03:20:35;2.80;;;1.60;;
57111;SDS011;42992;49.084;19.300;2022-07-06T03:23:01;2.40;;;1.50;;
57111;SDS011;42992;49.084;19.300;2022-07-06T03:25:26;2.47;;;1.50;;
57111;SDS011;42992;49.084;19.300;2022-07-06T03:27:51;3.30;;;1.83;;
57111;SDS011;42992;49.084;19.300;2022-07-06T03:30:16;3.35;;;1.80;;
57111;SDS011;42992;49.084;19.300;2022-07-06T03:32:42;3.00;;;1.70;;
57111;SDS011;42992;49.084;19.300;2022-07-06T03:35:07;2.53;;;1.67;;
57111;SDS011;42992;49.084;19.300;2022-07-06T03:37:33;2.92;;;1.70;;
57111;SDS011;42992;49.084;19.300;2022-07-06T03:39:58;2.92;;;1.90;;
57111;SDS011;42992;49.084;19.300;2022-07-06T03:42:23;2.92;;;1.80;;
57111;SDS011;42992;49.084;19.300;2022-07-06T03:44:48;3.33;;;2.33;;
57111;SDS011;42992;49.084;19.300;2022-07-06T03:47:14;3.53;;;1.85;;
57111;SDS011;42992;49.084;19.300;2022-07-06T03:49:39;2.60;;;1.63;;
57111;SDS011;42992;49.084;19.300;2022-07-06T03:52:04;4.80;;;1.70;;
57111;SDS011;42992;49.084;19.300;2022-07-06T03:54:30;3.85;;;2.05;;
57111;SDS011;42992;49.084;19.300;2022-07-06T03:56:55;3.17;;;1.83;;
57111;SDS011;42992;49.084;19.300;2022-07-06T03:59:20;4.25;;;1.90;;
57111;SDS011;42992;49.084;19.300;2022-07-06T04:01:46;4.05;;;2.17;;
57111;SDS011;42992;49.084;19.300;2022-07-06T04:04:11;3.55;;;2.30;;
57111;SDS011;42992;49.084;19.300;2022-07-06T04:06:36;3.60;;;2.50;;
57111;SDS011;42992;49.084;19.300;2022-07-06T04:09:02;3.97;;;2.55;;
57111;SDS011;42992;49.084;19.300;2022-07-06T04:11:27;4.75;;;2.60;;
57111;SDS011;42992;49.084;19.300;2022-07-06T04:13:52;3.75;;;2.45;;
57111;SDS011;42992;49.084;19.300;2022-07-06T04:16:19;3.58;;;2.40;;
57111;SDS011;42992;49.084;19.300;2022-07-06T04:18:44;5.07;;;2.60;;
57111;SDS011;42992;49.084;19.300;2022-07-06T04:21:10;3.65;;;2.40;;
57111;SDS011;42992;49.084;19.300;2022-07-06T04:23:35;4.75;;;2.35;;
57111;SDS011;42992;49.084;19.300;2022-07-06T04:26:00;4.75;;;2.42;;
57111;SDS011;42992;49.084;19.300;2022-07-06T04:28:26;3.30;;;2.40;;
57111;SDS011;42992;49.084;19.300;2022-07-06T04:30:51;3.55;;;2.60;;
57111;SDS011;42992;49.084;19.300;2022-07-06T04:33:16;3.63;;;2.40;;
57111;SDS011;42992;49.084;19.300;2022-07-06T04:35:41;3.63;;;2.53;;
57111;SDS011;42992;49.084;19.300;2022-07-06T04:38:07;4.35;;;2.20;;
57111;SDS011;42992;49.084;19.300;2022-07-06T04:40:32;3.75;;;2.40;;
57111;SDS011;42992;49.084;19.300;2022-07-06T04:42:57;3.78;;;2.70;;
57111;SDS011;42992;49.084;19.300;2022-07-06T04:45:23;3.70;;;2.45;;
57111;SDS011;42992;49.084;19.300;2022-07-06T04:47:48;4.22;;;2.47;;
57111;SDS011;42992;49.084;19.300;2022-07-06T04:50:13;5.00;;;2.42;;
57111;SDS011;42992;49.084;19.300;2022-07-06T04:52:38;4.40;;;2.58;;
57111;SDS011;42992;49.084;19.300;2022-07-06T04:55:04;6.80;;;2.50;;
57111;SDS011;42992;49.084;19.300;2022-07-06T04:57:31;4.63;;;2.45;;
57111;SDS011;42992;49.084;19.300;2022-07-06T04:59:56;5.60;;;2.70;;
57111;SDS011;42992;49.084;19.300;2022-07-06T05:02:22;4.32;;;2.20;;
57111;SDS011;42992;49.084;19.300;2022-07-06T05:04:47;3.50;;;2.35;;
57111;SDS011;42992;49.084;19.300;2022-07-06T05:07:12;4.45;;;2.90;;
57111;SDS011;42992;49.084;19.300;2022-07-06T05:09:37;2.80;;;1.85;;
57111;SDS011;42992;49.084;19.300;2022-07-06T05:12:03;6.45;;;2.10;;
57111;SDS011;42992;49.084;19.300;2022-07-06T05:14:28;4.25;;;2.30;;
57111;SDS011;42992;49.084;19.300;2022-07-06T05:16:53;4.13;;;2.40;;
57111;SDS011;42992;49.084;19.300;2022-07-06T05:19:19;4.45;;;2.70;;
57111;SDS011;42992;49.084;19.300;2022-07-06T05:21:44;3.90;;;2.80;;
57111;SDS011;42992;49.084;19.300;2022-07-06T05:24:09;4.15;;;2.75;;
57111;SDS011;42992;49.084;19.300;2022-07-06T05:26:35;3.88;;;2.45;;
57111;SDS011;42992;49.084;19.300;2022-07-06T05:29:00;3.78;;;2.78;;
57111;SDS011;42992;49.084;19.300;2022-07-06T05:31:25;4.57;;;3.08;;
57111;SDS011;42992;49.084;19.300;2022-07-06T05:33:50;5.43;;;4.00;;
57111;SDS011;42992;49.084;19.300;2022-07-06T05:36:16;6.15;;;3.63;;
57111;SDS011;42992;49.084;19.300;2022-07-06T05:38:41;5.50;;;4.60;;
57111;SDS011;42992;49.084;19.300;2022-07-06T05:41:07;5.72;;;4.50;;
57111;SDS011;42992;49.084;19.300;2022-07-06T05:43:34;6.35;;;4.72;;
57111;SDS011;42992;49.084;19.300;2022-07-06T05:46:00;5.60;;;4.47;;
57111;SDS011;42992;49.084;19.300;2022-07-06T05:48:25;5.60;;;4.60;;
57111;SDS011;42992;49.084;19.300;2022-07-06T05:51:09;7.47;;;4.75;;
57111;SDS011;42992;49.084;19.300;2022-07-06T05:53:34;6.65;;;4.70;;
57111;SDS011;42992;49.084;19.300;2022-07-06T05:55:59;7.93;;;5.40;;
57111;SDS011;42992;49.084;19.300;2022-07-06T05:58:25;5.13;;;3.28;;
57111;SDS011;42992;49.084;19.300;2022-07-06T06:00:50;5.75;;;3.72;;
57111;SDS011;42992;49.084;19.300;2022-07-06T06:03:16;5.72;;;4.43;;
57111;SDS011;42992;49.084;19.300;2022-07-06T06:05:41;6.70;;;4.85;;
57111;SDS011;42992;49.084;19.300;2022-07-06T06:08:06;5.88;;;4.32;;
57111;SDS011;42992;49.084;19.300;2022-07-06T06:10:32;6.70;;;5.10;;
57111;SDS011;42992;49.084;19.300;2022-07-06T06:12:57;6.13;;;4.80;;
57111;SDS011;42992;49.084;19.300;2022-07-06T06:15:22;5.75;;;4.50;;
57111;SDS011;42992;49.084;19.300;2022-07-06T06:17:47;8.73;;;5.38;;
57111;SDS011;42992;49.084;19.300;2022-07-06T06:20:13;6.15;;;5.47;;
57111;SDS011;42992;49.084;19.300;2022-07-06T06:25:11;5.90;;;4.75;;
57111;SDS011;42992;49.084;19.300;2022-07-06T06:27:36;7.15;;;5.43;;
57111;SDS011;42992;49.084;19.300;2022-07-06T06:30:01;6.50;;;5.07;;
57111;SDS011;42992;49.084;19.300;2022-07-06T06:32:27;6.60;;;5.55;;
57111;SDS011;42992;49.084;19.300;2022-07-06T06:34:52;6.93;;;5.50;;
57111;SDS011;42992;49.084;19.300;2022-07-06T06:37:17;7.03;;;5.60;;
57111;SDS011;42992;49.084;19.300;2022-07-06T06:39:42;6.70;;;5.30;;
57111;SDS011;42992;49.084;19.300;2022-07-06T06:42:08;5.88;;;5.20;;
57111;SDS011;42992;49.084;19.300;2022-07-06T06:44:33;7.03;;;5.95;;
57111;SDS011;42992;49.084;19.300;2022-07-06T06:46:58;7.10;;;5.43;;
57111;SDS011;42992;49.084;19.300;2022-07-06T06:49:23;5.85;;;5.07;;
57111;SDS011;42992;49.084;19.300;2022-07-06T06:51:49;5.72;;;4.68;;
57111;SDS011;42992;49.084;19.300;2022-07-06T06:54:14;7.60;;;5.32;;
57111;SDS011;42992;49.084;19.300;2022-07-06T06:56:39;8.80;;;5.32;;
57111;SDS011;42992;49.084;19.300;2022-07-06T06:59:05;7.28;;;5.50;;
57111;SDS011;42992;49.084;19.300;2022-07-06T07:01:30;5.70;;;4.80;;
57111;SDS011;42992;49.084;19.300;2022-07-06T07:03:57;6.22;;;5.10;;
57111;SDS011;42992;49.084;19.300;2022-07-06T07:06:22;7.97;;;4.90;;
57111;SDS011;42992;49.084;19.300;2022-07-06T07:08:48;6.63;;;5.00;;
57111;SDS011;42992;49.084;19.300;2022-07-06T07:11:13;6.75;;;5.22;;
57111;SDS011;42992;49.084;19.300;2022-07-06T07:13:39;6.32;;;5.22;;
57111;SDS011;42992;49.084;19.300;2022-07-06T07:16:04;6.70;;;5.57;;
57111;SDS011;42992;49.084;19.300;2022-07-06T07:18:30;7.50;;;5.13;;
57111;SDS011;42992;49.084;19.300;2022-07-06T07:20:55;10.73;;;4.90;;
57111;SDS011;42992;49.084;19.300;2022-07-06T07:23:20;5.97;;;4.60;;
57111;SDS011;42992;49.084;19.300;2022-07-06T07:25:46;5.63;;;4.88;;
57111;SDS011;42992;49.084;19.300;2022-07-06T07:28:14;5.30;;;4.57;;
57111;SDS011;42992;49.084;19.300;2022-07-06T07:30:39;6.80;;;4.70;;
57111;SDS011;42992;49.084;19.300;2022-07-06T07:33:08;6.00;;;4.82;;
57111;SDS011;42992;49.084;19.300;2022-07-06T07:35:33;5.22;;;3.90;;
57111;SDS011;42992;49.084;19.300;2022-07-06T07:37:59;5.45;;;4.38;;
57111;SDS011;42992;49.084;19.300;2022-07-06T07:40:24;6.38;;;4.40;;
57111;SDS011;42992;49.084;19.300;2022-07-06T07:42:49;6.90;;;5.25;;
57111;SDS011;42992;49.084;19.300;2022-07-06T07:45:15;8.45;;;5.03;;
57111;SDS011;42992;49.084;19.300;2022-07-06T07:47:40;6.15;;;5.00;;
57111;SDS011;42992;49.084;19.300;2022-07-06T07:50:06;6.82;;;4.60;;
57111;SDS011;42992;49.084;19.300;2022-07-06T07:52:31;6.57;;;4.40;;
57111;SDS011;42992;49.084;19.300;2022-07-06T07:54:57;4.88;;;3.85;;
57111;SDS011;42992;49.084;19.300;2022-07-06T07:57:22;4.90;;;3.90;;
57111;SDS011;42992;49.084;19.300;2022-07-06T07:59:48;5.50;;;4.20;;
57111;SDS011;42992;49.084;19.300;2022-07-06T08:02:14;6.25;;;4.07;;
57111;SDS011;42992;49.084;19.300;2022-07-06T08:04:39;6.32;;;3.90;;
57111;SDS011;42992;49.084;19.300;2022-07-06T08:07:04;5.60;;;3.80;;
57111;SDS011;42992;49.084;19.300;2022-07-06T08:09:31;5.18;;;3.38;;
57111;SDS011;42992;49.084;19.300;2022-07-06T08:11:56;5.25;;;3.83;;
57111;SDS011;42992;49.084;19.300;2022-07-06T08:14:22;6.90;;;3.75;;
57111;SDS011;42992;49.084;19.300;2022-07-06T08:16:47;7.13;;;3.75;;
57111;SDS011;42992;49.084;19.300;2022-07-06T08:19:12;6.40;;;3.70;;
57111;SDS011;42992;49.084;19.300;2022-07-06T08:21:43;7.35;;;3.70;;
57111;SDS011;42992;49.084;19.300;2022-07-06T08:24:12;5.75;;;3.40;;
57111;SDS011;42992;49.084;19.300;2022-07-06T08:26:37;5.75;;;3.30;;
57111;SDS011;42992;49.084;19.300;2022-07-06T08:29:02;8.35;;;3.22;;
57111;SDS011;42992;49.084;19.300;2022-07-06T08:31:28;6.78;;;3.75;;
57111;SDS011;42992;49.084;19.300;2022-07-06T08:33:53;5.68;;;3.20;;
57111;SDS011;42992;49.084;19.300;2022-07-06T08:36:22;6.85;;;3.28;;
57111;SDS011;42992;49.084;19.300;2022-07-06T08:38:48;4.82;;;3.30;;
57111;SDS011;42992;49.084;19.300;2022-07-06T08:41:14;6.63;;;3.50;;
57111;SDS011;42992;49.084;19.300;2022-07-06T08:43:40;5.90;;;2.80;;
57111;SDS011;42992;49.084;19.300;2022-07-06T08:46:06;4.97;;;2.80;;
57111;SDS011;42992;49.084;19.300;2022-07-06T08:48:33;4.15;;;2.90;;
57111;SDS011;42992;49.084;19.300;2022-07-06T08:51:00;4.45;;;3.00;;
57111;SDS011;42992;49.084;19.300;2022-07-06T08:53:26;4.55;;;2.70;;
57111;SDS011;42992;49.084;19.300;2022-07-06T08:55:51;4.03;;;2.92;;
57111;SDS011;42992;49.084;19.300;2022-07-06T08:58:17;4.70;;;2.70;;
57111;SDS011;42992;49.084;19.300;2022-07-06T09:00:42;7.30;;;3.08;;
57111;SDS011;42992;49.084;19.300;2022-07-06T09:03:10;5.00;;;3.13;;
57111;SDS011;42992;49.084;19.300;2022-07-06T09:05:36;3.92;;;2.67;;
57111;SDS011;42992;49.084;19.300;2022-07-06T09:08:02;3.85;;;2.63;;
57111;SDS011;42992;49.084;19.300;2022-07-06T09:10:27;5.90;;;2.55;;
57111;SDS011;42992;49.084;19.300;2022-07-06T09:12:52;4.00;;;2.40;;
57111;SDS011;42992;49.084;19.300;2022-07-06T09:15:18;7.65;;;3.38;;
57111;SDS011;42992;49.084;19.300;2022-07-06T09:17:43;6.70;;;2.75;;
57111;SDS011;42992;49.084;19.300;2022-07-06T09:20:10;4.13;;;2.63;;
57111;SDS011;42992;49.084;19.300;2022-07-06T09:22:36;3.75;;;2.42;;
57111;SDS011;42992;49.084;19.300;2022-07-06T09:25:05;3.80;;;2.35;;
57111;SDS011;42992;49.084;19.300;2022-07-06T09:27:31;7.60;;;2.28;;
57111;SDS011;42992;49.084;19.300;2022-07-06T09:30:00;4.32;;;2.50;;
57111;SDS011;42992;49.084;19.300;2022-07-06T09:32:28;10.43;;;3.13;;
57111;SDS011;42992;49.084;19.300;2022-07-06T09:34:54;4.22;;;2.63;;
57111;SDS011;42992;49.084;19.300;2022-07-06T09:37:21;7.20;;;2.72;;
57111;SDS011;42992;49.084;19.300;2022-07-06T09:39:46;6.25;;;2.80;;
57111;SDS011;42992;49.084;19.300;2022-07-06T09:42:11;5.95;;;2.72;;
57111;SDS011;42992;49.084;19.300;2022-07-06T09:44:42;6.72;;;3.13;;
57111;SDS011;42992;49.084;19.300;2022-07-06T09:47:09;6.00;;;2.85;;
57111;SDS011;42992;49.084;19.300;2022-07-06T09:49:35;6.30;;;3.35;;
57111;SDS011;42992;49.084;19.300;2022-07-06T09:52:01;7.30;;;2.90;;
57111;SDS011;42992;49.084;19.300;2022-07-06T09:54:27;4.57;;;2.90;;
57111;SDS011;42992;49.084;19.300;2022-07-06T09:56:54;4.80;;;3.05;;
57111;SDS011;42992;49.084;19.300;2022-07-06T09:59:20;6.65;;;3.10;;
57111;SDS011;42992;49.084;19.300;2022-07-06T10:01:46;6.75;;;3.10;;
57111;SDS011;42992;49.084;19.300;2022-07-06T10:04:12;5.15;;;3.10;;
57111;SDS011;42992;49.084;19.300;2022-07-06T10:06:38;4.90;;;3.30;;
57111;SDS011;42992;49.084;19.300;2022-07-06T10:09:07;5.95;;;3.28;;
57111;SDS011;42992;49.084;19.300;2022-07-06T10:11:42;6.18;;;3.70;;
57111;SDS011;42992;49.084;19.300;2022-07-06T10:14:08;7.00;;;3.65;;
57111;SDS011;42992;49.084;19.300;2022-07-06T10:16:36;7.57;;;4.00;;
57111;SDS011;42992;49.084;19.300;2022-07-06T10:19:03;5.45;;;4.10;;
57111;SDS011;42992;49.084;19.300;2022-07-06T10:21:29;7.68;;;4.38;;
57111;SDS011;42992;49.084;19.300;2022-07-06T10:23:55;6.32;;;4.68;;
57111;SDS011;42992;49.084;19.300;2022-07-06T10:26:21;7.25;;;4.88;;
57111;SDS011;42992;49.084;19.300;2022-07-06T10:28:48;7.43;;;5.18;;
57111;SDS011;42992;49.084;19.300;2022-07-06T10:31:14;6.45;;;5.05;;
57111;SDS011;42992;49.084;19.300;2022-07-06T10:33:41;7.65;;;5.15;;
57111;SDS011;42992;49.084;19.300;2022-07-06T10:36:07;7.53;;;5.45;;
57111;SDS011;42992;49.084;19.300;2022-07-06T10:38:34;7.57;;;5.10;;
57111;SDS011;42992;49.084;19.300;2022-07-06T10:41:04;7.03;;;5.05;;
57111;SDS011;42992;49.084;19.300;2022-07-06T10:43:37;9.57;;;5.00;;
57111;SDS011;42992;49.084;19.300;2022-07-06T10:46:09;6.30;;;4.90;;
57111;SDS011;42992;49.084;19.300;2022-07-06T10:48:43;6.13;;;5.45;;
57111;SDS011;42992;49.084;19.300;2022-07-06T10:51:10;6.50;;;5.50;;
57111;SDS011;42992;49.084;19.300;2022-07-06T10:53:36;9.98;;;5.63;;
57111;SDS011;42992;49.084;19.300;2022-07-06T10:56:08;6.93;;;5.70;;
57111;SDS011;42992;49.084;19.300;2022-07-06T10:58:40;8.30;;;5.70;;
57111;SDS011;42992;49.084;19.300;2022-07-06T11:01:07;7.57;;;6.70;;
57111;SDS011;42992;49.084;19.300;2022-07-06T11:06:17;8.90;;;6.65;;
57111;SDS011;42992;49.084;19.300;2022-07-06T11:08:50;8.57;;;6.68;;
57111;SDS011;42992;49.084;19.300;2022-07-06T11:13:48;8.10;;;6.95;;
57111;SDS011;42992;49.084;19.300;2022-07-06T11:16:15;8.43;;;6.65;;
57111;SDS011;42992;49.084;19.300;2022-07-06T11:18:41;6.60;;;5.90;;
57111;SDS011;42992;49.084;19.300;2022-07-06T11:23:42;7.88;;;6.07;;
57111;SDS011;42992;49.084;19.300;2022-07-06T11:26:08;9.13;;;6.38;;
57111;SDS011;42992;49.084;19.300;2022-07-06T11:28:34;7.88;;;6.13;;
57111;SDS011;42992;49.084;19.300;2022-07-06T11:31:01;7.28;;;5.93;;
57111;SDS011;42992;49.084;19.300;2022-07-06T11:33:29;10.40;;;6.45;;
57111;SDS011;42992;49.084;19.300;2022-07-06T11:36:10;8.35;;;6.63;;
57111;SDS011;42992;49.084;19.300;2022-07-06T11:38:36;8.95;;;6.75;;
57111;SDS011;42992;49.084;19.300;2022-07-06T11:41:01;7.28;;;6.47;;
57111;SDS011;42992;49.084;19.300;2022-07-06T11:43:26;7.50;;;6.10;;
57111;SDS011;42992;49.084;19.300;2022-07-06T11:45:52;10.02;;;6.07;;
57111;SDS011;42992;49.084;19.300;2022-07-06T11:48:17;7.50;;;4.75;;
57111;SDS011;42992;49.084;19.300;2022-07-06T11:50:42;6.65;;;4.03;;
57111;SDS011;42992;49.084;19.300;2022-07-06T11:53:08;6.40;;;4.07;;
57111;SDS011;42992;49.084;19.300;2022-07-06T11:55:33;5.78;;;4.07;;
57111;SDS011;42992;49.084;19.300;2022-07-06T11:57:58;6.18;;;4.10;;
57111;SDS011;42992;49.084;19.300;2022-07-06T12:00:25;6.97;;;4.03;;
57111;SDS011;42992;49.084;19.300;2022-07-06T12:03:00;4.70;;;3.38;;
57111;SDS011;42992;49.084;19.300;2022-07-06T12:08:02;6.25;;;3.90;;
57111;SDS011;42992;49.084;19.300;2022-07-06T12:10:31;7.60;;;3.97;;
57111;SDS011;42992;49.084;19.300;2022-07-06T12:13:04;5.50;;;4.20;;
57111;SDS011;42992;49.084;19.300;2022-07-06T12:15:29;5.28;;;3.95;;
57111;SDS011;42992;49.084;19.300;2022-07-06T12:17:55;5.97;;;3.35;;
57111;SDS011;42992;49.084;19.300;2022-07-06T12:20:20;4.95;;;3.72;;
57111;SDS011;42992;49.084;19.300;2022-07-06T12:22:45;5.32;;;3.70;;
57111;SDS011;42992;49.084;19.300;2022-07-06T12:25:11;6.88;;;3.67;;
57111;SDS011;42992;49.084;19.300;2022-07-06T12:27:36;4.40;;;3.13;;
57111;SDS011;42992;49.084;19.300;2022-07-06T12:30:08;4.75;;;3.10;;
57111;SDS011;42992;49.084;19.300;2022-07-06T12:32:33;7.18;;;3.47;;
57111;SDS011;42992;49.084;19.300;2022-07-06T12:35:08;5.75;;;2.95;;
57111;SDS011;42992;49.084;19.300;2022-07-06T12:37:34;4.78;;;2.72;;
57111;SDS011;42992;49.084;19.300;2022-07-06T12:39:59;7.38;;;2.58;;
57111;SDS011;42992;49.084;19.300;2022-07-06T12:42:25;4.22;;;2.53;;
57111;SDS011;42992;49.084;19.300;2022-07-06T12:44:51;3.63;;;2.17;;
57111;SDS011;42992;49.084;19.300;2022-07-06T12:47:17;4.60;;;2.42;;
57111;SDS011;42992;49.084;19.300;2022-07-06T12:49:43;3.55;;;2.00;;
57111;SDS011;42992;49.084;19.300;2022-07-06T12:52:09;4.00;;;2.28;;
57111;SDS011;42992;49.084;19.300;2022-07-06T12:54:42;4.25;;;2.85;;
57111;SDS011;42992;49.084;19.300;2022-07-06T12:57:12;5.15;;;2.67;;
57111;SDS011;42992;49.084;19.300;2022-07-06T12:59:41;6.25;;;2.85;;
57111;SDS011;42992;49.084;19.300;2022-07-06T13:02:07;4.53;;;2.58;;
57111;SDS011;42992;49.084;19.300;2022-07-06T13:04:34;3.10;;;1.90;;
57111;SDS011;42992;49.084;19.300;2022-07-06T13:07:00;4.13;;;2.50;;
57111;SDS011;42992;49.084;19.300;2022-07-06T13:09:26;5.18;;;2.15;;
57111;SDS011;42992;49.084;19.300;2022-07-06T13:11:51;6.53;;;2.50;;
57111;SDS011;42992;49.084;19.300;2022-07-06T13:14:17;2.65;;;1.48;;
57111;SDS011;42992;49.084;19.300;2022-07-06T13:16:43;3.25;;;1.60;;
57111;SDS011;42992;49.084;19.300;2022-07-06T13:19:09;3.58;;;1.55;;
57111;SDS011;42992;49.084;19.300;2022-07-06T13:21:34;6.43;;;2.00;;
57111;SDS011;42992;49.084;19.300;2022-07-06T13:24:00;2.90;;;1.75;;
57111;SDS011;42992;49.084;19.300;2022-07-06T13:26:25;4.72;;;2.10;;
57111;SDS011;42992;49.084;19.300;2022-07-06T13:28:50;4.60;;;1.92;;
57111;SDS011;42992;49.084;19.300;2022-07-06T13:31:16;6.55;;;1.85;;
57111;SDS011;42992;49.084;19.300;2022-07-06T13:33:41;4.75;;;1.65;;
57111;SDS011;42992;49.084;19.300;2022-07-06T13:36:07;4.57;;;1.73;;
57111;SDS011;42992;49.084;19.300;2022-07-06T13:38:32;4.03;;;1.85;;
57111;SDS011;42992;49.084;19.300;2022-07-06T13:40:57;4.57;;;1.88;;
57111;SDS011;42992;49.084;19.300;2022-07-06T13:43:23;5.15;;;1.90;;
57111;SDS011;42992;49.084;19.300;2022-07-06T13:45:48;4.35;;;2.00;;
57111;SDS011;42992;49.084;19.300;2022-07-06T13:48:13;3.65;;;1.65;;
57111;SDS011;42992;49.084;19.300;2022-07-06T13:50:39;3.63;;;1.70;;
57111;SDS011;42992;49.084;19.300;2022-07-06T13:53:04;4.07;;;1.52;;
57111;SDS011;42992;49.084;19.300;2022-07-06T13:55:30;4.38;;;1.48;;
57111;SDS011;42992;49.084;19.300;2022-07-06T13:57:56;3.58;;;2.00;;
57111;SDS011;42992;49.084;19.300;2022-07-06T14:00:21;3.03;;;1.60;;
57111;SDS011;42992;49.084;19.300;2022-07-06T14:02:46;2.90;;;1.70;;
57111;SDS011;42992;49.084;19.300;2022-07-06T14:05:12;4.90;;;1.70;;
57111;SDS011;42992;49.084;19.300;2022-07-06T14:07:37;3.05;;;1.52;;
57111;SDS011;42992;49.084;19.300;2022-07-06T14:10:02;5.35;;;2.38;;
57111;SDS011;42992;49.084;19.300;2022-07-06T14:12:28;3.47;;;1.70;;
57111;SDS011;42992;49.084;19.300;2022-07-06T14:14:53;3.97;;;1.75;;
57111;SDS011;42992;49.084;19.300;2022-07-06T14:17:18;4.88;;;1.75;;
57111;SDS011;42992;49.084;19.300;2022-07-06T14:19:44;4.72;;;1.60;;
57111;SDS011;42992;49.084;19.300;2022-07-06T14:22:09;3.58;;;1.50;;
57111;SDS011;42992;49.084;19.300;2022-07-06T14:24:34;2.63;;;1.40;;
57111;SDS011;42992;49.084;19.300;2022-07-06T14:27:00;4.65;;;1.70;;
57111;SDS011;42992;49.084;19.300;2022-07-06T14:29:25;3.42;;;1.50;;
57111;SDS011;42992;49.084;19.300;2022-07-06T14:31:51;4.68;;;1.50;;
57111;SDS011;42992;49.084;19.300;2022-07-06T14:34:16;3.22;;;1.52;;
57111;SDS011;42992;49.084;19.300;2022-07-06T14:36:41;2.85;;;1.50;;
57111;SDS011;42992;49.084;19.300;2022-07-06T14:39:06;2.40;;;1.35;;